sensor_id;sensor_type;location;lat;lon;timestamp;P1;durP1;ratioP1;P2;durP2;ratioP2
70026;SDS011;57506;50.092;15.804;2023-01-24T00:00:59;51.08;;;19.85;;
70026;SDS011;57506;50.092;15.804;2023-01-24T00:03:25;57.15;;;21.90;;
70026;SDS011;57506;50.092;15.804;2023-01-24T00:05:50;51.20;;;21.20;;
70026;SDS011;57506;50.092;15.804;2023-01-24T00:08:18;55.40;;;21.08;;
70026;SDS011;57506;50.092;15.804;2023-01-24T00:10:45;54.90;;;21.20;;
70026;SDS011;57506;50.092;15.804;2023-01-24T00:13:11;52.00;;;20.42;;
70026;SDS011;57506;50.092;15.804;2023-01-24T00:15:38;57.45;;;21.52;;
70026;SDS011;57506;50.092;15.804;2023-01-24T00:18:04;53.47;;;22.27;;
70026;SDS011;57506;50.092;15.804;2023-01-24T00:20:30;60.65;;;21.70;;
70026;SDS011;57506;50.092;15.804;2023-01-24T00:22:56;51.25;;;21.08;;
70026;SDS011;57506;50.092;15.804;2023-01-24T00:25:21;58.57;;;20.97;;
70026;SDS011;57506;50.092;15.804;2023-01-24T00:27:47;55.20;;;19.90;;
70026;SDS011;57506;50.092;15.804;2023-01-24T00:30:12;54.60;;;19.65;;
70026;SDS011;57506;50.092;15.804;2023-01-24T00:32:38;60.30;;;22.07;;
70026;SDS011;57506;50.092;15.804;2023-01-24T00:35:03;53.40;;;19.43;;
70026;SDS011;57506;50.092;15.804;2023-01-24T00:37:29;50.08;;;18.65;;
70026;SDS011;57506;50.092;15.804;2023-01-24T00:39:55;49.20;;;19.77;;
70026;SDS011;57506;50.092;15.804;2023-01-24T00:42:20;50.60;;;19.53;;
70026;SDS011;57506;50.092;15.804;2023-01-24T00:44:46;52.25;;;18.83;;
70026;SDS011;57506;50.092;15.804;2023-01-24T00:47:11;45.53;;;19.83;;
70026;SDS011;57506;50.092;15.804;2023-01-24T00:49:37;48.33;;;19.70;;
70026;SDS011;57506;50.092;15.804;2023-01-24T00:52:02;56.78;;;20.63;;
70026;SDS011;57506;50.092;15.804;2023-01-24T00:54:28;55.80;;;21.42;;
70026;SDS011;57506;50.092;15.804;2023-01-24T00:56:53;48.43;;;19.67;;
70026;SDS011;57506;50.092;15.804;2023-01-24T00:59:19;49.63;;;21.15;;
70026;SDS011;57506;50.092;15.804;2023-01-24T01:01:44;50.70;;;19.77;;
70026;SDS011;57506;50.092;15.804;2023-01-24T01:04:10;51.73;;;20.00;;
70026;SDS011;57506;50.092;15.804;2023-01-24T01:06:35;47.90;;;19.00;;
70026;SDS011;57506;50.092;15.804;2023-01-24T01:09:01;48.20;;;19.73;;
70026;SDS011;57506;50.092;15.804;2023-01-24T01:11:27;42.17;;;18.55;;
70026;SDS011;57506;50.092;15.804;2023-01-24T01:13:53;45.33;;;19.53;;
70026;SDS011;57506;50.092;15.804;2023-01-24T01:16:20;50.83;;;18.85;;
70026;SDS011;57506;50.092;15.804;2023-01-24T01:18:46;45.23;;;17.33;;
70026;SDS011;57506;50.092;15.804;2023-01-24T01:21:13;42.95;;;16.33;;
70026;SDS011;57506;50.092;15.804;2023-01-24T01:23:41;44.40;;;17.65;;
70026;SDS011;57506;50.092;15.804;2023-01-24T01:26:08;42.13;;;17.98;;
70026;SDS011;57506;50.092;15.804;2023-01-24T01:28:37;39.35;;;15.73;;
70026;SDS011;57506;50.092;15.804;2023-01-24T01:31:03;38.57;;;16.87;;
70026;SDS011;57506;50.092;15.804;2023-01-24T01:33:29;43.05;;;17.05;;
70026;SDS011;57506;50.092;15.804;2023-01-24T01:35:54;38.45;;;16.58;;
70026;SDS011;57506;50.092;15.804;2023-01-24T01:38:20;44.70;;;17.77;;
70026;SDS011;57506;50.092;15.804;2023-01-24T01:40:45;43.67;;;17.70;;
70026;SDS011;57506;50.092;15.804;2023-01-24T01:43:12;43.85;;;16.38;;
70026;SDS011;57506;50.092;15.804;2023-01-24T01:45:43;47.75;;;18.23;;
70026;SDS011;57506;50.092;15.804;2023-01-24T01:48:21;55.17;;;20.33;;
70026;SDS011;57506;50.092;15.804;2023-01-24T01:51:32;39.78;;;15.88;;
70026;SDS011;57506;50.092;15.804;2023-01-24T01:54:09;40.95;;;16.52;;
70026;SDS011;57506;50.092;15.804;2023-01-24T01:56:48;39.97;;;14.93;;
70026;SDS011;57506;50.092;15.804;2023-01-24T01:59:26;46.53;;;16.73;;
70026;SDS011;57506;50.092;15.804;2023-01-24T02:01:57;40.73;;;14.90;;
70026;SDS011;57506;50.092;15.804;2023-01-24T02:04:29;53.65;;;18.42;;
70026;SDS011;57506;50.092;15.804;2023-01-24T02:09:39;67.78;;;22.00;;
70026;SDS011;57506;50.092;15.804;2023-01-24T02:12:09;61.72;;;21.02;;
70026;SDS011;57506;50.092;15.804;2023-01-24T02:14:38;69.57;;;21.03;;
70026;SDS011;57506;50.092;15.804;2023-01-24T02:17:23;54.50;;;19.05;;
70026;SDS011;57506;50.092;15.804;2023-01-24T02:22:28;57.17;;;19.45;;
70026;SDS011;57506;50.092;15.804;2023-01-24T02:27:47;63.90;;;19.70;;
70026;SDS011;57506;50.092;15.804;2023-01-24T02:30:12;54.92;;;18.88;;
70026;SDS011;57506;50.092;15.804;2023-01-24T02:32:38;52.42;;;18.48;;
70026;SDS011;57506;50.092;15.804;2023-01-24T02:35:04;56.57;;;19.13;;
70026;SDS011;57506;50.092;15.804;2023-01-24T02:37:30;60.75;;;19.00;;
70026;SDS011;57506;50.092;15.804;2023-01-24T02:40:02;57.78;;;19.15;;
70026;SDS011;57506;50.092;15.804;2023-01-24T02:42:34;61.17;;;20.88;;
70026;SDS011;57506;50.092;15.804;2023-01-24T02:47:27;61.25;;;20.75;;
70026;SDS011;57506;50.092;15.804;2023-01-24T02:49:58;79.87;;;22.63;;
70026;SDS011;57506;50.092;15.804;2023-01-24T02:52:24;71.32;;;21.85;;
70026;SDS011;57506;50.092;15.804;2023-01-24T02:55:08;71.13;;;21.80;;
70026;SDS011;57506;50.092;15.804;2023-01-24T02:57:34;67.57;;;20.90;;
70026;SDS011;57506;50.092;15.804;2023-01-24T03:00:18;65.75;;;22.02;;
70026;SDS011;57506;50.092;15.804;2023-01-24T03:02:44;69.60;;;20.20;;
70026;SDS011;57506;50.092;15.804;2023-01-24T03:05:09;63.30;;;20.13;;
70026;SDS011;57506;50.092;15.804;2023-01-24T03:07:35;54.65;;;19.20;;
70026;SDS011;57506;50.092;15.804;2023-01-24T03:10:10;62.53;;;19.50;;
70026;SDS011;57506;50.092;15.804;2023-01-24T03:12:37;53.10;;;20.23;;
70026;SDS011;57506;50.092;15.804;2023-01-24T03:15:21;52.80;;;18.60;;
70026;SDS011;57506;50.092;15.804;2023-01-24T03:18:06;66.18;;;20.38;;
70026;SDS011;57506;50.092;15.804;2023-01-24T03:20:50;57.80;;;19.88;;
70026;SDS011;57506;50.092;15.804;2023-01-24T03:23:34;61.87;;;20.03;;
70026;SDS011;57506;50.092;15.804;2023-01-24T03:26:18;62.95;;;22.50;;
70026;SDS011;57506;50.092;15.804;2023-01-24T03:29:02;61.47;;;20.55;;
70026;SDS011;57506;50.092;15.804;2023-01-24T03:31:46;62.63;;;20.63;;
70026;SDS011;57506;50.092;15.804;2023-01-24T03:34:30;53.03;;;16.92;;
70026;SDS011;57506;50.092;15.804;2023-01-24T03:37:01;51.83;;;18.33;;
70026;SDS011;57506;50.092;15.804;2023-01-24T03:39:27;48.17;;;18.17;;
70026;SDS011;57506;50.092;15.804;2023-01-24T03:42:11;57.08;;;19.27;;
70026;SDS011;57506;50.092;15.804;2023-01-24T03:44:36;50.83;;;19.00;;
70026;SDS011;57506;50.092;15.804;2023-01-24T03:47:02;57.28;;;18.90;;
70026;SDS011;57506;50.092;15.804;2023-01-24T03:49:27;48.57;;;18.00;;
70026;SDS011;57506;50.092;15.804;2023-01-24T03:52:11;55.55;;;16.58;;
70026;SDS011;57506;50.092;15.804;2023-01-24T03:54:56;52.65;;;18.55;;
70026;SDS011;57506;50.092;15.804;2023-01-24T03:57:23;47.43;;;16.07;;
70026;SDS011;57506;50.092;15.804;2023-01-24T03:59:49;54.70;;;17.77;;
70026;SDS011;57506;50.092;15.804;2023-01-24T04:02:15;52.60;;;18.63;;
70026;SDS011;57506;50.092;15.804;2023-01-24T04:04:41;53.08;;;18.55;;
70026;SDS011;57506;50.092;15.804;2023-01-24T04:07:26;46.10;;;17.97;;
70026;SDS011;57506;50.092;15.804;2023-01-24T04:09:52;46.70;;;16.42;;
70026;SDS011;57506;50.092;15.804;2023-01-24T04:12:17;56.00;;;18.55;;
70026;SDS011;57506;50.092;15.804;2023-01-24T04:14:43;59.43;;;18.83;;
70026;SDS011;57506;50.092;15.804;2023-01-24T04:17:09;54.17;;;17.97;;
70026;SDS011;57506;50.092;15.804;2023-01-24T04:19:34;59.20;;;18.63;;
70026;SDS011;57506;50.092;15.804;2023-01-24T04:22:00;60.07;;;19.30;;
70026;SDS011;57506;50.092;15.804;2023-01-24T04:24:25;58.07;;;18.97;;
70026;SDS011;57506;50.092;15.804;2023-01-24T04:26:51;58.45;;;18.60;;
70026;SDS011;57506;50.092;15.804;2023-01-24T04:29:16;52.50;;;17.97;;
70026;SDS011;57506;50.092;15.804;2023-01-24T04:31:42;52.53;;;17.83;;
70026;SDS011;57506;50.092;15.804;2023-01-24T04:34:07;56.65;;;18.35;;
70026;SDS011;57506;50.092;15.804;2023-01-24T04:36:33;63.03;;;20.17;;
70026;SDS011;57506;50.092;15.804;2023-01-24T04:38:59;58.97;;;19.70;;
70026;SDS011;57506;50.092;15.804;2023-01-24T04:41:24;56.08;;;20.10;;
70026;SDS011;57506;50.092;15.804;2023-01-24T04:43:50;58.13;;;20.03;;
70026;SDS011;57506;50.092;15.804;2023-01-24T04:46:15;61.63;;;20.52;;
70026;SDS011;57506;50.092;15.804;2023-01-24T04:48:41;66.22;;;19.90;;
70026;SDS011;57506;50.092;15.804;2023-01-24T04:51:07;64.17;;;19.90;;
70026;SDS011;57506;50.092;15.804;2023-01-24T04:53:37;55.20;;;18.88;;
70026;SDS011;57506;50.092;15.804;2023-01-24T04:56:03;60.53;;;20.17;;
70026;SDS011;57506;50.092;15.804;2023-01-24T04:58:29;57.92;;;19.77;;
70026;SDS011;57506;50.092;15.804;2023-01-24T05:00:55;58.77;;;20.40;;
70026;SDS011;57506;50.092;15.804;2023-01-24T05:03:20;71.75;;;23.23;;
70026;SDS011;57506;50.092;15.804;2023-01-24T05:05:49;60.67;;;20.60;;
70026;SDS011;57506;50.092;15.804;2023-01-24T05:08:16;70.07;;;19.50;;
70026;SDS011;57506;50.092;15.804;2023-01-24T05:10:41;74.10;;;21.20;;
70026;SDS011;57506;50.092;15.804;2023-01-24T05:13:07;65.63;;;22.05;;
70026;SDS011;57506;50.092;15.804;2023-01-24T05:15:32;75.87;;;22.27;;
70026;SDS011;57506;50.092;15.804;2023-01-24T05:17:58;66.87;;;20.50;;
70026;SDS011;57506;50.092;15.804;2023-01-24T05:20:23;63.47;;;20.63;;
70026;SDS011;57506;50.092;15.804;2023-01-24T05:22:49;62.40;;;19.95;;
70026;SDS011;57506;50.092;15.804;2023-01-24T05:25:17;62.70;;;21.13;;
70026;SDS011;57506;50.092;15.804;2023-01-24T05:27:43;72.68;;;21.10;;
70026;SDS011;57506;50.092;15.804;2023-01-24T05:30:09;65.80;;;20.13;;
70026;SDS011;57506;50.092;15.804;2023-01-24T05:32:36;62.43;;;20.17;;
70026;SDS011;57506;50.092;15.804;2023-01-24T05:35:02;70.00;;;18.73;;
70026;SDS011;57506;50.092;15.804;2023-01-24T05:37:29;62.97;;;18.63;;
70026;SDS011;57506;50.092;15.804;2023-01-24T05:39:54;64.87;;;18.50;;
70026;SDS011;57506;50.092;15.804;2023-01-24T05:42:20;82.38;;;19.85;;
70026;SDS011;57506;50.092;15.804;2023-01-24T05:44:45;79.57;;;20.23;;
70026;SDS011;57506;50.092;15.804;2023-01-24T05:47:11;74.47;;;20.00;;
70026;SDS011;57506;50.092;15.804;2023-01-24T05:49:36;86.03;;;21.17;;
70026;SDS011;57506;50.092;15.804;2023-01-24T05:52:02;89.05;;;21.83;;
70026;SDS011;57506;50.092;15.804;2023-01-24T05:54:27;89.10;;;22.20;;
70026;SDS011;57506;50.092;15.804;2023-01-24T05:56:53;94.07;;;23.73;;
70026;SDS011;57506;50.092;15.804;2023-01-24T05:59:18;98.53;;;23.38;;
70026;SDS011;57506;50.092;15.804;2023-01-24T06:01:44;91.70;;;23.60;;
70026;SDS011;57506;50.092;15.804;2023-01-24T06:04:10;101.57;;;23.83;;
70026;SDS011;57506;50.092;15.804;2023-01-24T06:06:41;97.20;;;23.25;;
70026;SDS011;57506;50.092;15.804;2023-01-24T06:09:06;95.33;;;23.30;;
70026;SDS011;57506;50.092;15.804;2023-01-24T06:11:33;98.07;;;21.52;;
70026;SDS011;57506;50.092;15.804;2023-01-24T06:13:59;94.93;;;23.48;;
70026;SDS011;57506;50.092;15.804;2023-01-24T06:16:26;86.57;;;22.27;;
70026;SDS011;57506;50.092;15.804;2023-01-24T06:18:54;81.70;;;21.52;;
70026;SDS011;57506;50.092;15.804;2023-01-24T06:21:25;105.57;;;23.67;;
70026;SDS011;57506;50.092;15.804;2023-01-24T06:24:02;106.10;;;24.40;;
70026;SDS011;57506;50.092;15.804;2023-01-24T06:26:28;107.87;;;23.23;;
70026;SDS011;57506;50.092;15.804;2023-01-24T06:28:54;92.10;;;22.17;;
70026;SDS011;57506;50.092;15.804;2023-01-24T06:39:49;86.55;;;24.08;;
70026;SDS011;57506;50.092;15.804;2023-01-24T06:42:19;79.68;;;21.70;;
70026;SDS011;57506;50.092;15.804;2023-01-24T06:44:46;73.05;;;22.02;;
70026;SDS011;57506;50.092;15.804;2023-01-24T06:47:12;64.13;;;23.80;;
70026;SDS011;57506;50.092;15.804;2023-01-24T06:49:39;68.93;;;24.00;;
70026;SDS011;57506;50.092;15.804;2023-01-24T06:52:05;64.57;;;21.20;;
70026;SDS011;57506;50.092;15.804;2023-01-24T06:54:32;56.00;;;19.73;;
70026;SDS011;57506;50.092;15.804;2023-01-24T06:56:58;59.90;;;19.20;;
70026;SDS011;57506;50.092;15.804;2023-01-24T06:59:23;61.65;;;20.02;;
70026;SDS011;57506;50.092;15.804;2023-01-24T07:01:49;57.30;;;21.50;;
70026;SDS011;57506;50.092;15.804;2023-01-24T07:04:15;57.20;;;23.08;;
70026;SDS011;57506;50.092;15.804;2023-01-24T07:06:41;53.47;;;21.40;;
70026;SDS011;57506;50.092;15.804;2023-01-24T07:09:07;59.85;;;23.05;;
70026;SDS011;57506;50.092;15.804;2023-01-24T07:11:33;57.10;;;21.92;;
70026;SDS011;57506;50.092;15.804;2023-01-24T07:13:58;53.50;;;19.15;;
70026;SDS011;57506;50.092;15.804;2023-01-24T07:16:24;50.00;;;18.20;;
70026;SDS011;57506;50.092;15.804;2023-01-24T07:18:49;55.00;;;19.40;;
70026;SDS011;57506;50.092;15.804;2023-01-24T07:21:15;71.60;;;21.57;;
70026;SDS011;57506;50.092;15.804;2023-01-24T07:23:45;79.07;;;24.65;;
70026;SDS011;57506;50.092;15.804;2023-01-24T07:26:12;93.85;;;26.48;;
70026;SDS011;57506;50.092;15.804;2023-01-24T07:28:38;86.05;;;24.35;;
70026;SDS011;57506;50.092;15.804;2023-01-24T07:31:05;131.27;;;30.20;;
70026;SDS011;57506;50.092;15.804;2023-01-24T07:33:31;80.90;;;21.50;;
70026;SDS011;57506;50.092;15.804;2023-01-24T07:35:57;86.55;;;23.80;;
70026;SDS011;57506;50.092;15.804;2023-01-24T07:38:22;91.57;;;24.20;;
70026;SDS011;57506;50.092;15.804;2023-01-24T07:40:48;97.53;;;27.10;;
70026;SDS011;57506;50.092;15.804;2023-01-24T07:43:13;107.63;;;30.13;;
70026;SDS011;57506;50.092;15.804;2023-01-24T07:45:39;99.07;;;27.85;;
70026;SDS011;57506;50.092;15.804;2023-01-24T07:48:07;101.77;;;28.60;;
70026;SDS011;57506;50.092;15.804;2023-01-24T07:50:33;81.90;;;28.40;;
70026;SDS011;57506;50.092;15.804;2023-01-24T07:52:59;74.07;;;24.73;;
70026;SDS011;57506;50.092;15.804;2023-01-24T07:55:25;66.80;;;22.07;;
70026;SDS011;57506;50.092;15.804;2023-01-24T07:57:51;65.78;;;21.98;;
70026;SDS011;57506;50.092;15.804;2023-01-24T08:00:17;58.50;;;20.90;;
70026;SDS011;57506;50.092;15.804;2023-01-24T08:02:43;58.63;;;21.83;;
70026;SDS011;57506;50.092;15.804;2023-01-24T08:05:09;61.08;;;20.77;;
70026;SDS011;57506;50.092;15.804;2023-01-24T08:07:35;66.30;;;22.70;;
70026;SDS011;57506;50.092;15.804;2023-01-24T08:10:02;69.05;;;22.65;;
70026;SDS011;57506;50.092;15.804;2023-01-24T08:12:28;59.22;;;20.23;;
70026;SDS011;57506;50.092;15.804;2023-01-24T08:14:53;58.63;;;20.40;;
70026;SDS011;57506;50.092;15.804;2023-01-24T08:17:19;74.57;;;20.83;;
70026;SDS011;57506;50.092;15.804;2023-01-24T08:19:44;73.20;;;20.50;;
70026;SDS011;57506;50.092;15.804;2023-01-24T08:22:12;65.20;;;20.63;;
70026;SDS011;57506;50.092;15.804;2023-01-24T08:24:37;62.17;;;20.47;;
70026;SDS011;57506;50.092;15.804;2023-01-24T08:27:03;73.55;;;20.02;;
70026;SDS011;57506;50.092;15.804;2023-01-24T08:29:30;64.68;;;20.17;;
70026;SDS011;57506;50.092;15.804;2023-01-24T08:31:57;64.30;;;19.85;;
70026;SDS011;57506;50.092;15.804;2023-01-24T08:34:23;61.33;;;20.73;;
70026;SDS011;57506;50.092;15.804;2023-01-24T08:36:49;62.90;;;20.70;;
70026;SDS011;57506;50.092;15.804;2023-01-24T08:39:14;71.10;;;20.67;;
70026;SDS011;57506;50.092;15.804;2023-01-24T08:41:40;62.10;;;20.53;;
70026;SDS011;57506;50.092;15.804;2023-01-24T08:44:08;60.42;;;21.13;;
70026;SDS011;57506;50.092;15.804;2023-01-24T08:46:34;54.08;;;20.95;;
70026;SDS011;57506;50.092;15.804;2023-01-24T08:48:59;64.03;;;22.92;;
70026;SDS011;57506;50.092;15.804;2023-01-24T08:51:27;62.17;;;23.73;;
70026;SDS011;57506;50.092;15.804;2023-01-24T08:53:52;59.47;;;23.43;;
70026;SDS011;57506;50.092;15.804;2023-01-24T08:56:18;62.10;;;23.77;;
70026;SDS011;57506;50.092;15.804;2023-01-24T08:58:46;73.40;;;25.10;;
70026;SDS011;57506;50.092;15.804;2023-01-24T09:01:11;67.03;;;25.87;;
70026;SDS011;57506;50.092;15.804;2023-01-24T09:03:37;75.03;;;24.98;;
70026;SDS011;57506;50.092;15.804;2023-01-24T09:06:03;69.25;;;25.55;;
70026;SDS011;57506;50.092;15.804;2023-01-24T09:08:29;74.05;;;25.80;;
70026;SDS011;57506;50.092;15.804;2023-01-24T09:10:58;83.82;;;32.70;;
70026;SDS011;57506;50.092;15.804;2023-01-24T09:13:25;96.75;;;34.80;;
70026;SDS011;57506;50.092;15.804;2023-01-24T09:15:50;89.80;;;32.47;;
70026;SDS011;57506;50.092;15.804;2023-01-24T09:18:16;82.23;;;30.70;;
70026;SDS011;57506;50.092;15.804;2023-01-24T09:20:41;162.10;;;60.45;;
70026;SDS011;57506;50.092;15.804;2023-01-24T09:23:08;114.93;;;42.30;;
70026;SDS011;57506;50.092;15.804;2023-01-24T09:25:34;91.38;;;34.10;;
70026;SDS011;57506;50.092;15.804;2023-01-24T09:28:00;96.53;;;33.40;;
70026;SDS011;57506;50.092;15.804;2023-01-24T09:30:25;103.22;;;34.10;;
70026;SDS011;57506;50.092;15.804;2023-01-24T09:32:50;81.30;;;29.80;;
70026;SDS011;57506;50.092;15.804;2023-01-24T09:35:16;82.93;;;29.20;;
70026;SDS011;57506;50.092;15.804;2023-01-24T09:37:41;86.22;;;30.75;;
70026;SDS011;57506;50.092;15.804;2023-01-24T09:40:15;70.70;;;27.17;;
70026;SDS011;57506;50.092;15.804;2023-01-24T09:42:56;80.45;;;29.13;;
70026;SDS011;57506;50.092;15.804;2023-01-24T09:45:34;73.10;;;27.75;;
70026;SDS011;57506;50.092;15.804;2023-01-24T09:48:04;72.60;;;25.10;;
70026;SDS011;57506;50.092;15.804;2023-01-24T09:50:41;73.78;;;26.48;;
70026;SDS011;57506;50.092;15.804;2023-01-24T09:53:21;71.57;;;25.23;;
70026;SDS011;57506;50.092;15.804;2023-01-24T09:55:57;74.32;;;25.17;;
70026;SDS011;57506;50.092;15.804;2023-01-24T09:58:29;70.95;;;26.00;;
70026;SDS011;57506;50.092;15.804;2023-01-24T10:01:01;81.15;;;30.05;;
70026;SDS011;57506;50.092;15.804;2023-01-24T10:03:30;75.25;;;28.30;;
70026;SDS011;57506;50.092;15.804;2023-01-24T10:05:58;83.17;;;28.47;;
70026;SDS011;57506;50.092;15.804;2023-01-24T10:08:44;83.53;;;27.70;;
70026;SDS011;57506;50.092;15.804;2023-01-24T10:25:13;85.28;;;28.23;;
70026;SDS011;57506;50.092;15.804;2023-01-24T10:28:07;76.18;;;27.27;;
70026;SDS011;57506;50.092;15.804;2023-01-24T10:33:39;78.27;;;27.93;;
70026;SDS011;57506;50.092;15.804;2023-01-24T10:39:14;82.47;;;28.85;;
70026;SDS011;57506;50.092;15.804;2023-01-24T10:41:39;85.50;;;28.67;;
70026;SDS011;57506;50.092;15.804;2023-01-24T10:44:27;87.22;;;29.42;;
70026;SDS011;57506;50.092;15.804;2023-01-24T10:49:58;82.70;;;30.23;;
70026;SDS011;57506;50.092;15.804;2023-01-24T10:52:25;95.20;;;32.53;;
70026;SDS011;57506;50.092;15.804;2023-01-24T10:54:55;94.95;;;35.03;;
70026;SDS011;57506;50.092;15.804;2023-01-24T11:02:57;82.60;;;29.10;;
70026;SDS011;57506;50.092;15.804;2023-01-24T11:05:24;96.93;;;39.58;;
70026;SDS011;57506;50.092;15.804;2023-01-24T11:08:00;84.85;;;30.75;;
70026;SDS011;57506;50.092;15.804;2023-01-24T11:10:27;81.82;;;30.08;;
70026;SDS011;57506;50.092;15.804;2023-01-24T11:12:59;91.80;;;33.55;;
70026;SDS011;57506;50.092;15.804;2023-01-24T11:15:30;94.27;;;32.80;;
70026;SDS011;57506;50.092;15.804;2023-01-24T11:18:19;82.65;;;31.77;;
70026;SDS011;57506;50.092;15.804;2023-01-24T11:20:49;85.03;;;31.92;;
70026;SDS011;57506;50.092;15.804;2023-01-24T11:23:31;90.15;;;35.45;;
70026;SDS011;57506;50.092;15.804;2023-01-24T11:25:58;80.67;;;29.57;;
70026;SDS011;57506;50.092;15.804;2023-01-24T11:28:30;77.85;;;28.48;;
70026;SDS011;57506;50.092;15.804;2023-01-24T11:31:04;79.13;;;30.05;;
70026;SDS011;57506;50.092;15.804;2023-01-24T11:36:11;86.53;;;30.63;;
70026;SDS011;57506;50.092;15.804;2023-01-24T11:38:50;92.00;;;33.13;;
70026;SDS011;57506;50.092;15.804;2023-01-24T11:51:40;92.55;;;33.63;;
70026;SDS011;57506;50.092;15.804;2023-01-24T12:02:01;87.47;;;35.25;;
70026;SDS011;57506;50.092;15.804;2023-01-24T12:07:28;94.78;;;37.13;;
70026;SDS011;57506;50.092;15.804;2023-01-24T12:13:11;93.38;;;35.92;;
70026;SDS011;57506;50.092;15.804;2023-01-24T12:21:40;94.50;;;35.38;;
70026;SDS011;57506;50.092;15.804;2023-01-24T12:24:15;94.00;;;34.97;;
70026;SDS011;57506;50.092;15.804;2023-01-24T12:26:59;114.45;;;47.92;;
70026;SDS011;57506;50.092;15.804;2023-01-24T12:29:31;115.75;;;47.00;;
70026;SDS011;57506;50.092;15.804;2023-01-24T12:32:07;97.78;;;40.22;;
70026;SDS011;57506;50.092;15.804;2023-01-24T12:37:36;83.50;;;33.05;;
70026;SDS011;57506;50.092;15.804;2023-01-24T12:45:19;81.65;;;33.25;;
70026;SDS011;57506;50.092;15.804;2023-01-24T12:47:52;81.67;;;33.17;;
70026;SDS011;57506;50.092;15.804;2023-01-24T12:55:39;83.25;;;32.60;;
70026;SDS011;57506;50.092;15.804;2023-01-24T12:58:36;86.65;;;34.90;;
70026;SDS011;57506;50.092;15.804;2023-01-24T13:09:26;95.80;;;39.90;;
70026;SDS011;57506;50.092;15.804;2023-01-24T13:12:13;82.57;;;33.83;;
70026;SDS011;57506;50.092;15.804;2023-01-24T13:14:55;82.95;;;34.08;;
70026;SDS011;57506;50.092;15.804;2023-01-24T13:20:51;102.90;;;42.07;;
70026;SDS011;57506;50.092;15.804;2023-01-24T13:28:37;96.60;;;43.60;;
70026;SDS011;57506;50.092;15.804;2023-01-24T13:31:16;86.95;;;33.85;;
70026;SDS011;57506;50.092;15.804;2023-01-24T13:33:52;80.30;;;33.43;;
70026;SDS011;57506;50.092;15.804;2023-01-24T13:36:22;76.82;;;34.20;;
70026;SDS011;57506;50.092;15.804;2023-01-24T13:38:56;81.93;;;35.30;;
70026;SDS011;57506;50.092;15.804;2023-01-24T13:43:57;81.27;;;36.47;;
70026;SDS011;57506;50.092;15.804;2023-01-24T13:49:34;87.45;;;35.90;;
70026;SDS011;57506;50.092;15.804;2023-01-24T13:52:03;85.20;;;35.22;;
70026;SDS011;57506;50.092;15.804;2023-01-24T13:54:49;77.43;;;34.05;;
70026;SDS011;57506;50.092;15.804;2023-01-24T13:59:58;80.32;;;33.38;;
70026;SDS011;57506;50.092;15.804;2023-01-24T14:02:30;68.47;;;32.13;;
70026;SDS011;57506;50.092;15.804;2023-01-24T14:04:59;79.07;;;32.03;;
70026;SDS011;57506;50.092;15.804;2023-01-24T14:07:35;67.63;;;31.30;;
70026;SDS011;57506;50.092;15.804;2023-01-24T14:10:04;75.27;;;33.47;;
70026;SDS011;57506;50.092;15.804;2023-01-24T14:12:31;87.20;;;36.90;;
70026;SDS011;57506;50.092;15.804;2023-01-24T14:23:18;89.27;;;38.40;;
70026;SDS011;57506;50.092;15.804;2023-01-24T14:25:53;101.13;;;41.67;;
70026;SDS011;57506;50.092;15.804;2023-01-24T14:31:00;93.32;;;43.88;;
70026;SDS011;57506;50.092;15.804;2023-01-24T14:33:36;91.57;;;41.15;;
70026;SDS011;57506;50.092;15.804;2023-01-24T14:36:12;96.87;;;39.80;;
70026;SDS011;57506;50.092;15.804;2023-01-24T14:38:38;86.43;;;37.50;;
70026;SDS011;57506;50.092;15.804;2023-01-24T14:41:04;80.53;;;37.05;;
70026;SDS011;57506;50.092;15.804;2023-01-24T14:43:36;85.30;;;38.40;;
70026;SDS011;57506;50.092;15.804;2023-01-24T14:46:16;80.80;;;36.58;;
70026;SDS011;57506;50.092;15.804;2023-01-24T14:48:49;74.30;;;35.80;;
70026;SDS011;57506;50.092;15.804;2023-01-24T14:51:17;73.43;;;33.30;;
70026;SDS011;57506;50.092;15.804;2023-01-24T14:53:50;70.75;;;30.92;;
70026;SDS011;57506;50.092;15.804;2023-01-24T14:56:18;70.65;;;31.30;;
70026;SDS011;57506;50.092;15.804;2023-01-24T14:58:44;72.00;;;30.95;;
70026;SDS011;57506;50.092;15.804;2023-01-24T15:01:29;75.50;;;33.78;;
70026;SDS011;57506;50.092;15.804;2023-01-24T15:03:58;76.10;;;32.73;;
70026;SDS011;57506;50.092;15.804;2023-01-24T15:06:26;94.90;;;39.50;;
70026;SDS011;57506;50.092;15.804;2023-01-24T15:08:56;92.68;;;40.17;;
70026;SDS011;57506;50.092;15.804;2023-01-24T15:11:27;133.05;;;55.92;;
70026;SDS011;57506;50.092;15.804;2023-01-24T15:16:36;93.47;;;41.67;;
70026;SDS011;57506;50.092;15.804;2023-01-24T15:19:14;81.43;;;33.42;;
70026;SDS011;57506;50.092;15.804;2023-01-24T15:21:45;104.63;;;42.13;;
70026;SDS011;57506;50.092;15.804;2023-01-24T15:26:43;92.70;;;37.20;;
70026;SDS011;57506;50.092;15.804;2023-01-24T15:32:19;83.97;;;35.92;;
70026;SDS011;57506;50.092;15.804;2023-01-24T15:34:46;79.85;;;32.65;;
70026;SDS011;57506;50.092;15.804;2023-01-24T15:37:13;81.23;;;33.07;;
70026;SDS011;57506;50.092;15.804;2023-01-24T15:39:40;76.63;;;32.78;;
70026;SDS011;57506;50.092;15.804;2023-01-24T15:42:11;70.40;;;29.85;;
70026;SDS011;57506;50.092;15.804;2023-01-24T15:44:58;80.47;;;29.98;;
70026;SDS011;57506;50.092;15.804;2023-01-24T15:47:24;85.10;;;33.43;;
70026;SDS011;57506;50.092;15.804;2023-01-24T15:50:16;80.95;;;31.15;;
70026;SDS011;57506;50.092;15.804;2023-01-24T15:55:59;65.87;;;23.77;;
70026;SDS011;57506;50.092;15.804;2023-01-24T15:58:28;56.47;;;22.92;;
70026;SDS011;57506;50.092;15.804;2023-01-24T16:00:54;69.82;;;26.58;;
70026;SDS011;57506;50.092;15.804;2023-01-24T16:03:22;123.10;;;39.72;;
70026;SDS011;57506;50.092;15.804;2023-01-24T16:05:48;130.07;;;41.67;;
70026;SDS011;57506;50.092;15.804;2023-01-24T16:08:13;135.63;;;43.63;;
70026;SDS011;57506;50.092;15.804;2023-01-24T16:10:39;171.43;;;53.50;;
70026;SDS011;57506;50.092;15.804;2023-01-24T16:13:08;96.10;;;35.42;;
70026;SDS011;57506;50.092;15.804;2023-01-24T16:16:04;256.35;;;62.30;;
70026;SDS011;57506;50.092;15.804;2023-01-24T16:18:31;290.92;;;69.35;;
70026;SDS011;57506;50.092;15.804;2023-01-24T16:20:56;108.40;;;41.07;;
70026;SDS011;57506;50.092;15.804;2023-01-24T16:23:22;83.95;;;31.95;;
70026;SDS011;57506;50.092;15.804;2023-01-24T16:25:49;69.57;;;27.13;;
70026;SDS011;57506;50.092;15.804;2023-01-24T16:28:24;75.78;;;28.50;;
70026;SDS011;57506;50.092;15.804;2023-01-24T16:30:51;66.43;;;25.40;;
70026;SDS011;57506;50.092;15.804;2023-01-24T16:33:19;60.80;;;23.00;;
70026;SDS011;57506;50.092;15.804;2023-01-24T16:35:46;108.95;;;30.75;;
70026;SDS011;57506;50.092;15.804;2023-01-24T16:38:13;95.32;;;36.70;;
70026;SDS011;57506;50.092;15.804;2023-01-24T16:40:39;74.50;;;29.17;;
70026;SDS011;57506;50.092;15.804;2023-01-24T16:43:06;69.45;;;27.60;;